Kalamazoo Battle Creek International Airport
KAZO : now visible

Airfield :











YOU CAN JOIN US ON...

 
LOGIN :

Register | Disclaimer

   EN    FR    IT 

 









Legend :    VFR   Marginal VFR   IFR   Intensive IFR   Very Intensive IFR
Visi :
Ceiling :
>= 8 km
>= 3000ft
5 to 8 km
1000 to 3000 ft
1500m to 5 km
500 to 1000 ft
800 to 1500m
200 to 500 ft
< 800m
< 200 ft
Symbols :   Thunderstorms  Fog  Heavy snow  Heavy precipitations  Wind > 20 kt






- Airport Elevation : 874 ft
- IATA code : AZO


KAZO - Kalamazoo Battle Creek International

CURRENT METAR :
  • 280753Z AUTO 32006KT 10SM OVC027 03/M02 A2984 RMK AO2 SLP110 T00331017 $

EXPIRED METARs :
  • 280653Z AUTO 32007KT 10SM OVC027 04/M01 A2981 RMK AO2 SLP101 T00391006 $
  • 280553Z AUTO 33007KT 10SM OVC026 04/00 A2979 RMK AO2 SLP095 T00440000 10056 20044 51025 $
  • 280453Z AUTO 32006KT 10SM OVC018 04/02 A2977 RMK AO2 SLP088 T00440017 400610006 $

TAF KAZO
Valid from the 28 at 06:00 until the 29 at 06:00 UTC


280535Z 2806/2906 33004KT P6SM BKN020
FM281200 VRB03KT P6SM SCT020
FM282200 16008KT P6SM BKN020
KZAU FIR / North America



MET'MAP, your aeronautical weather chart ! - Copyright ORBIFLY December 2007 - Disclaimer

ORBIFLY MET'MAP TEAM :

Programming & Development : Alexandra Zaïnal
Original concept : Baudouin d'Aumeries
Technical & hardware support : Manuel Goepfert
Assistance : Marc-Olivier Méhu




SOURCES & CREDITS :

   NOAA       Earth
Advisory